Terminal Aerodrome Forecast
Issued by NWS Grand Forks, ND

Home | Current Version | Previous Version | Graphics & Text | Print | Product List | Glossary On
Versions: 1 2 3 4 5 6 7 8 9 10 11 12 13 14 15
000
FTUS43 KFGF 200500
TAFGFK
TAF
KGFK 200520Z 2006/2106 17008KT P6SM SCT080 BKN250
      TEMPO 2010/2014 BKN080
     FM201500 21014KT P6SM SCT250
     FM202100 26012KT P6SM SCT250=

USA.gov is the U.S. government's official web portal to all federal, state and local government web resources and services.